Pagina principală
METAR-TAF:

METAR-TAF

Aeroporturi :

Rurrenabaque, Bolivia

Latitudine: 14-28S, longitudine: 067-34W, elevație: 204 m

Observații meteo curente

Raportul a fost făcut în urmă cu 12 ore și 58 de minute, la 21:00 UTC
Vânt 6 kt de la Nord/Nord-vest
Temperatură 28°C
Umiditate 74%
Presiune 1008 hPa
Vizibilitate de 10 km sau mai mult
Nori puțini la o înălțime de 1700 picior
Nori împrăștiați la o înălțime de 7000 picior
Nori fragmentați la o înălțime de 20000 picior

METAR: SLRQ 132100Z 33006KT 9999 FEW017 SCT070 BKN200 28/23 Q1008

Ora: 05:58 (09:58 UTC)


TAF: lipsă

Observații și prognoze meteo pentru peste 4.000 de aeroporturi (rapoarte METAR și TAF).

Stațiile disponibile sunt reprezentate pe hartă prin puncte galbene și roșii.

Țineți indicatorul mouse-ului pe punctul dorit pentru a vedea denumirea stației.

Apoi, faceți clic pentru a vedea observațiile și prognozele meteorologice.

Pentru a schimba harta: Pentru mărire, faceți clic pe butoanele verzi cu cruce neagră; pentru micșorare, pe butonul verde cu o liniuță; pentru hărți învecinate, pe săgețile verzi.


METAR-TAF: